sensor_id;sensor_type;location;lat;lon;timestamp;P1;durP1;ratioP1;P2;durP2;ratioP2
6422;SDS011;3244;42.708;23.288;2023-02-15T00:00:09;48.47;;;25.50;;
6422;SDS011;3244;42.708;23.288;2023-02-15T00:02:37;42.60;;;25.93;;
6422;SDS011;3244;42.708;23.288;2023-02-15T00:05:04;40.63;;;23.80;;
6422;SDS011;3244;42.708;23.288;2023-02-15T00:07:31;41.40;;;25.00;;
6422;SDS011;3244;42.708;23.288;2023-02-15T00:09:58;44.63;;;26.13;;
6422;SDS011;3244;42.708;23.288;2023-02-15T00:12:25;45.97;;;26.23;;
6422;SDS011;3244;42.708;23.288;2023-02-15T00:14:53;43.30;;;24.90;;
6422;SDS011;3244;42.708;23.288;2023-02-15T00:17:20;45.03;;;26.93;;
6422;SDS011;3244;42.708;23.288;2023-02-15T00:19:47;39.43;;;24.70;;
6422;SDS011;3244;42.708;23.288;2023-02-15T00:22:14;46.30;;;26.37;;
6422;SDS011;3244;42.708;23.288;2023-02-15T00:24:40;46.33;;;27.60;;
6422;SDS011;3244;42.708;23.288;2023-02-15T00:27:07;84.07;;;43.43;;
6422;SDS011;3244;42.708;23.288;2023-02-15T00:29:35;61.07;;;32.07;;
6422;SDS011;3244;42.708;23.288;2023-02-15T00:32:03;43.90;;;25.10;;
6422;SDS011;3244;42.708;23.288;2023-02-15T00:34:30;46.90;;;25.63;;
6422;SDS011;3244;42.708;23.288;2023-02-15T00:36:57;44.20;;;25.67;;
6422;SDS011;3244;42.708;23.288;2023-02-15T00:39:24;45.17;;;25.80;;
6422;SDS011;3244;42.708;23.288;2023-02-15T00:41:52;46.77;;;26.67;;
6422;SDS011;3244;42.708;23.288;2023-02-15T00:44:19;46.70;;;25.80;;
6422;SDS011;3244;42.708;23.288;2023-02-15T00:46:45;45.57;;;26.33;;
6422;SDS011;3244;42.708;23.288;2023-02-15T00:49:14;43.03;;;24.97;;
6422;SDS011;3244;42.708;23.288;2023-02-15T00:51:40;42.90;;;25.10;;
6422;SDS011;3244;42.708;23.288;2023-02-15T00:54:07;40.17;;;24.70;;
6422;SDS011;3244;42.708;23.288;2023-02-15T00:56:34;47.90;;;25.13;;
6422;SDS011;3244;42.708;23.288;2023-02-15T00:59:01;40.90;;;23.53;;
6422;SDS011;3244;42.708;23.288;2023-02-15T01:01:28;38.17;;;23.87;;
6422;SDS011;3244;42.708;23.288;2023-02-15T01:03:55;41.73;;;23.67;;
6422;SDS011;3244;42.708;23.288;2023-02-15T01:06:23;44.40;;;24.23;;
6422;SDS011;3244;42.708;23.288;2023-02-15T01:08:50;41.80;;;25.10;;
6422;SDS011;3244;42.708;23.288;2023-02-15T01:11:17;44.13;;;24.10;;
6422;SDS011;3244;42.708;23.288;2023-02-15T01:13:47;42.97;;;24.93;;
6422;SDS011;3244;42.708;23.288;2023-02-15T01:16:14;41.97;;;24.87;;
6422;SDS011;3244;42.708;23.288;2023-02-15T01:18:41;46.13;;;24.57;;
6422;SDS011;3244;42.708;23.288;2023-02-15T01:21:08;43.43;;;25.33;;
6422;SDS011;3244;42.708;23.288;2023-02-15T01:23:38;42.20;;;24.50;;
6422;SDS011;3244;42.708;23.288;2023-02-15T01:26:04;39.07;;;24.10;;
6422;SDS011;3244;42.708;23.288;2023-02-15T01:28:31;42.20;;;25.60;;
6422;SDS011;3244;42.708;23.288;2023-02-15T01:30:58;41.20;;;24.30;;
6422;SDS011;3244;42.708;23.288;2023-02-15T01:33:25;42.70;;;25.17;;
6422;SDS011;3244;42.708;23.288;2023-02-15T01:35:55;42.67;;;23.93;;
6422;SDS011;3244;42.708;23.288;2023-02-15T01:38:23;41.60;;;25.23;;
6422;SDS011;3244;42.708;23.288;2023-02-15T01:40:51;41.20;;;23.20;;
6422;SDS011;3244;42.708;23.288;2023-02-15T01:43:19;42.90;;;23.70;;
6422;SDS011;3244;42.708;23.288;2023-02-15T01:45:46;35.73;;;22.87;;
6422;SDS011;3244;42.708;23.288;2023-02-15T01:48:17;40.83;;;24.73;;
6422;SDS011;3244;42.708;23.288;2023-02-15T01:50:47;42.72;;;24.27;;
6422;SDS011;3244;42.708;23.288;2023-02-15T01:53:18;41.88;;;22.65;;
6422;SDS011;3244;42.708;23.288;2023-02-15T01:55:50;39.13;;;22.33;;
6422;SDS011;3244;42.708;23.288;2023-02-15T01:58:21;37.53;;;22.90;;
6422;SDS011;3244;42.708;23.288;2023-02-15T02:00:52;41.10;;;24.02;;
6422;SDS011;3244;42.708;23.288;2023-02-15T02:03:20;62.93;;;30.10;;
6422;SDS011;3244;42.708;23.288;2023-02-15T02:05:56;44.37;;;25.37;;
6422;SDS011;3244;42.708;23.288;2023-02-15T02:08:23;41.27;;;24.43;;
6422;SDS011;3244;42.708;23.288;2023-02-15T02:10:50;70.00;;;36.93;;
6422;SDS011;3244;42.708;23.288;2023-02-15T02:13:18;90.73;;;44.33;;
6422;SDS011;3244;42.708;23.288;2023-02-15T02:15:47;51.73;;;28.33;;
6422;SDS011;3244;42.708;23.288;2023-02-15T02:18:24;40.13;;;24.43;;
6422;SDS011;3244;42.708;23.288;2023-02-15T02:21:07;43.15;;;24.70;;
6422;SDS011;3244;42.708;23.288;2023-02-15T02:24:11;35.90;;;21.60;;
6422;SDS011;3244;42.708;23.288;2023-02-15T02:27:00;40.10;;;22.97;;
6422;SDS011;3244;42.708;23.288;2023-02-15T02:36:00;36.77;;;23.63;;
6422;SDS011;3244;42.708;23.288;2023-02-15T02:38:35;38.63;;;22.17;;
6422;SDS011;3244;42.708;23.288;2023-02-15T02:41:13;35.63;;;20.63;;
6422;SDS011;3244;42.708;23.288;2023-02-15T02:43:48;37.17;;;22.77;;
6422;SDS011;3244;42.708;23.288;2023-02-15T02:46:20;36.40;;;22.40;;
6422;SDS011;3244;42.708;23.288;2023-02-15T02:48:53;36.33;;;22.87;;
6422;SDS011;3244;42.708;23.288;2023-02-15T02:51:21;37.23;;;22.67;;
6422;SDS011;3244;42.708;23.288;2023-02-15T02:53:50;37.90;;;21.63;;
6422;SDS011;3244;42.708;23.288;2023-02-15T02:56:21;35.90;;;22.33;;
6422;SDS011;3244;42.708;23.288;2023-02-15T02:58:54;43.73;;;23.70;;
6422;SDS011;3244;42.708;23.288;2023-02-15T03:01:27;36.27;;;21.93;;
6422;SDS011;3244;42.708;23.288;2023-02-15T03:04:00;38.73;;;22.57;;
6422;SDS011;3244;42.708;23.288;2023-02-15T03:06:34;34.20;;;20.77;;
6422;SDS011;3244;42.708;23.288;2023-02-15T03:09:06;31.60;;;20.93;;
6422;SDS011;3244;42.708;23.288;2023-02-15T03:11:39;33.53;;;21.27;;
6422;SDS011;3244;42.708;23.288;2023-02-15T03:14:08;38.30;;;23.00;;
6422;SDS011;3244;42.708;23.288;2023-02-15T03:16:35;38.93;;;22.83;;
6422;SDS011;3244;42.708;23.288;2023-02-15T03:19:07;33.00;;;21.23;;
6422;SDS011;3244;42.708;23.288;2023-02-15T03:21:38;33.10;;;20.50;;
6422;SDS011;3244;42.708;23.288;2023-02-15T03:24:23;35.13;;;21.73;;
6422;SDS011;3244;42.708;23.288;2023-02-15T03:26:55;40.37;;;22.73;;
6422;SDS011;3244;42.708;23.288;2023-02-15T03:29:24;37.00;;;20.73;;
6422;SDS011;3244;42.708;23.288;2023-02-15T03:31:54;34.43;;;20.27;;
6422;SDS011;3244;42.708;23.288;2023-02-15T03:34:25;34.23;;;19.93;;
6422;SDS011;3244;42.708;23.288;2023-02-15T03:36:55;31.43;;;21.07;;
6422;SDS011;3244;42.708;23.288;2023-02-15T03:39:27;31.73;;;20.90;;
6422;SDS011;3244;42.708;23.288;2023-02-15T03:42:01;35.00;;;22.13;;
6422;SDS011;3244;42.708;23.288;2023-02-15T03:44:37;33.83;;;21.37;;
6422;SDS011;3244;42.708;23.288;2023-02-15T03:47:10;38.53;;;21.07;;
6422;SDS011;3244;42.708;23.288;2023-02-15T03:49:42;32.47;;;19.93;;
6422;SDS011;3244;42.708;23.288;2023-02-15T03:52:14;32.90;;;20.57;;
6422;SDS011;3244;42.708;23.288;2023-02-15T03:54:43;30.57;;;20.13;;
6422;SDS011;3244;42.708;23.288;2023-02-15T03:57:15;41.30;;;20.57;;
6422;SDS011;3244;42.708;23.288;2023-02-15T04:00:03;30.97;;;20.03;;
6422;SDS011;3244;42.708;23.288;2023-02-15T04:02:52;31.00;;;19.60;;
6422;SDS011;3244;42.708;23.288;2023-02-15T04:05:28;32.03;;;20.23;;
6422;SDS011;3244;42.708;23.288;2023-02-15T04:07:55;31.60;;;20.60;;
6422;SDS011;3244;42.708;23.288;2023-02-15T04:10:22;31.07;;;20.10;;
6422;SDS011;3244;42.708;23.288;2023-02-15T04:13:17;30.33;;;19.10;;
6422;SDS011;3244;42.708;23.288;2023-02-15T04:15:44;34.93;;;20.20;;
6422;SDS011;3244;42.708;23.288;2023-02-15T04:18:28;28.53;;;19.40;;
6422;SDS011;3244;42.708;23.288;2023-02-15T04:21:14;35.00;;;20.03;;
6422;SDS011;3244;42.708;23.288;2023-02-15T04:23:59;37.13;;;21.57;;
6422;SDS011;3244;42.708;23.288;2023-02-15T04:26:43;27.47;;;19.10;;
6422;SDS011;3244;42.708;23.288;2023-02-15T04:29:11;31.80;;;21.70;;
6422;SDS011;3244;42.708;23.288;2023-02-15T04:31:37;30.67;;;19.73;;
6422;SDS011;3244;42.708;23.288;2023-02-15T04:34:04;30.20;;;19.40;;
6422;SDS011;3244;42.708;23.288;2023-02-15T04:36:32;31.40;;;20.63;;
6422;SDS011;3244;42.708;23.288;2023-02-15T04:38:59;33.50;;;20.73;;
6422;SDS011;3244;42.708;23.288;2023-02-15T04:41:26;35.07;;;21.23;;
6422;SDS011;3244;42.708;23.288;2023-02-15T04:43:52;33.75;;;21.77;;
6422;SDS011;3244;42.708;23.288;2023-02-15T04:46:19;33.07;;;20.97;;
6422;SDS011;3244;42.708;23.288;2023-02-15T04:48:46;30.10;;;19.77;;
6422;SDS011;3244;42.708;23.288;2023-02-15T04:51:13;32.50;;;20.57;;
6422;SDS011;3244;42.708;23.288;2023-02-15T04:53:41;30.85;;;20.40;;
6422;SDS011;3244;42.708;23.288;2023-02-15T04:56:08;32.57;;;21.07;;
6422;SDS011;3244;42.708;23.288;2023-02-15T04:58:34;31.83;;;19.90;;
6422;SDS011;3244;42.708;23.288;2023-02-15T05:01:02;33.43;;;20.67;;
6422;SDS011;3244;42.708;23.288;2023-02-15T05:03:29;36.20;;;20.80;;
6422;SDS011;3244;42.708;23.288;2023-02-15T05:05:55;33.03;;;21.33;;
6422;SDS011;3244;42.708;23.288;2023-02-15T05:08:22;29.97;;;19.00;;
6422;SDS011;3244;42.708;23.288;2023-02-15T05:10:50;34.90;;;20.83;;
6422;SDS011;3244;42.708;23.288;2023-02-15T05:13:17;36.63;;;20.53;;
6422;SDS011;3244;42.708;23.288;2023-02-15T05:15:46;32.80;;;20.35;;
6422;SDS011;3244;42.708;23.288;2023-02-15T05:18:13;32.37;;;20.60;;
6422;SDS011;3244;42.708;23.288;2023-02-15T05:20:40;35.53;;;20.85;;
6422;SDS011;3244;42.708;23.288;2023-02-15T05:23:07;32.47;;;20.80;;
6422;SDS011;3244;42.708;23.288;2023-02-15T05:25:34;35.10;;;20.40;;
6422;SDS011;3244;42.708;23.288;2023-02-15T05:28:19;62.60;;;31.97;;
6422;SDS011;3244;42.708;23.288;2023-02-15T05:30:46;41.70;;;23.33;;
6422;SDS011;3244;42.708;23.288;2023-02-15T05:33:14;32.17;;;19.53;;
6422;SDS011;3244;42.708;23.288;2023-02-15T05:35:40;34.10;;;20.98;;
6422;SDS011;3244;42.708;23.288;2023-02-15T05:38:07;32.83;;;20.80;;
6422;SDS011;3244;42.708;23.288;2023-02-15T05:40:34;31.73;;;20.73;;
6422;SDS011;3244;42.708;23.288;2023-02-15T05:43:01;30.75;;;19.67;;
6422;SDS011;3244;42.708;23.288;2023-02-15T05:45:29;34.30;;;20.50;;
6422;SDS011;3244;42.708;23.288;2023-02-15T05:47:56;32.15;;;20.67;;
6422;SDS011;3244;42.708;23.288;2023-02-15T05:50:24;50.55;;;28.33;;
6422;SDS011;3244;42.708;23.288;2023-02-15T05:52:51;38.20;;;23.67;;
6422;SDS011;3244;42.708;23.288;2023-02-15T05:55:18;56.92;;;31.27;;
6422;SDS011;3244;42.708;23.288;2023-02-15T05:57:45;32.67;;;21.85;;
6422;SDS011;3244;42.708;23.288;2023-02-15T06:00:12;34.28;;;20.83;;
6422;SDS011;3244;42.708;23.288;2023-02-15T06:02:41;32.63;;;20.80;;
6422;SDS011;3244;42.708;23.288;2023-02-15T06:05:08;32.47;;;19.27;;
6422;SDS011;3244;42.708;23.288;2023-02-15T06:07:35;33.90;;;21.00;;
6422;SDS011;3244;42.708;23.288;2023-02-15T06:10:02;35.72;;;21.75;;
6422;SDS011;3244;42.708;23.288;2023-02-15T06:12:29;44.20;;;25.50;;
6422;SDS011;3244;42.708;23.288;2023-02-15T06:14:56;73.72;;;37.80;;
6422;SDS011;3244;42.708;23.288;2023-02-15T06:17:22;106.90;;;47.27;;
6422;SDS011;3244;42.708;23.288;2023-02-15T06:19:50;77.77;;;35.07;;
6422;SDS011;3244;42.708;23.288;2023-02-15T06:22:17;48.67;;;27.98;;
6422;SDS011;3244;42.708;23.288;2023-02-15T06:24:45;46.40;;;24.08;;
6422;SDS011;3244;42.708;23.288;2023-02-15T06:27:12;44.50;;;24.30;;
6422;SDS011;3244;42.708;23.288;2023-02-15T06:29:38;36.90;;;22.90;;
6422;SDS011;3244;42.708;23.288;2023-02-15T06:32:05;31.70;;;20.92;;
6422;SDS011;3244;42.708;23.288;2023-02-15T06:34:32;30.60;;;18.65;;
6422;SDS011;3244;42.708;23.288;2023-02-15T06:37:00;30.43;;;19.50;;
6422;SDS011;3244;42.708;23.288;2023-02-15T06:39:27;32.87;;;19.80;;
6422;SDS011;3244;42.708;23.288;2023-02-15T06:41:54;30.92;;;20.67;;
6422;SDS011;3244;42.708;23.288;2023-02-15T06:44:20;35.25;;;21.90;;
6422;SDS011;3244;42.708;23.288;2023-02-15T06:46:47;33.72;;;19.90;;
6422;SDS011;3244;42.708;23.288;2023-02-15T06:49:14;32.03;;;19.90;;
6422;SDS011;3244;42.708;23.288;2023-02-15T06:51:40;28.25;;;18.33;;
6422;SDS011;3244;42.708;23.288;2023-02-15T06:54:08;29.23;;;17.40;;
6422;SDS011;3244;42.708;23.288;2023-02-15T06:56:35;26.88;;;18.17;;
6422;SDS011;3244;42.708;23.288;2023-02-15T06:59:02;30.35;;;17.58;;
6422;SDS011;3244;42.708;23.288;2023-02-15T07:01:28;26.75;;;17.70;;
6422;SDS011;3244;42.708;23.288;2023-02-15T07:03:55;28.75;;;19.05;;
6422;SDS011;3244;42.708;23.288;2023-02-15T07:06:22;31.08;;;19.92;;
6422;SDS011;3244;42.708;23.288;2023-02-15T07:08:48;34.33;;;19.35;;
6422;SDS011;3244;42.708;23.288;2023-02-15T07:11:16;28.25;;;19.42;;
6422;SDS011;3244;42.708;23.288;2023-02-15T07:14:01;35.92;;;18.88;;
6422;SDS011;3244;42.708;23.288;2023-02-15T07:16:27;29.13;;;18.83;;
6422;SDS011;3244;42.708;23.288;2023-02-15T07:18:54;29.55;;;18.13;;
6422;SDS011;3244;42.708;23.288;2023-02-15T07:21:21;26.40;;;17.75;;
6422;SDS011;3244;42.708;23.288;2023-02-15T07:23:49;27.98;;;18.70;;
6422;SDS011;3244;42.708;23.288;2023-02-15T07:26:17;26.27;;;16.17;;
6422;SDS011;3244;42.708;23.288;2023-02-15T07:28:44;29.35;;;17.65;;
6422;SDS011;3244;42.708;23.288;2023-02-15T07:31:10;33.28;;;18.75;;
6422;SDS011;3244;42.708;23.288;2023-02-15T07:33:37;29.52;;;17.45;;
6422;SDS011;3244;42.708;23.288;2023-02-15T07:36:04;30.92;;;17.50;;
6422;SDS011;3244;42.708;23.288;2023-02-15T07:38:32;27.30;;;16.77;;
6422;SDS011;3244;42.708;23.288;2023-02-15T07:40:59;26.67;;;16.55;;
6422;SDS011;3244;42.708;23.288;2023-02-15T07:43:28;28.67;;;18.17;;
6422;SDS011;3244;42.708;23.288;2023-02-15T07:45:58;27.50;;;15.98;;
6422;SDS011;3244;42.708;23.288;2023-02-15T07:48:25;22.50;;;15.93;;
6422;SDS011;3244;42.708;23.288;2023-02-15T07:50:52;30.25;;;17.65;;
6422;SDS011;3244;42.708;23.288;2023-02-15T07:53:19;27.33;;;18.13;;
6422;SDS011;3244;42.708;23.288;2023-02-15T07:55:46;29.08;;;18.05;;
6422;SDS011;3244;42.708;23.288;2023-02-15T07:58:12;27.85;;;16.60;;
6422;SDS011;3244;42.708;23.288;2023-02-15T08:00:41;26.80;;;16.10;;
6422;SDS011;3244;42.708;23.288;2023-02-15T08:03:23;25.20;;;16.10;;
6422;SDS011;3244;42.708;23.288;2023-02-15T08:05:54;28.52;;;17.30;;
6422;SDS011;3244;42.708;23.288;2023-02-15T08:08:22;20.67;;;16.13;;
6422;SDS011;3244;42.708;23.288;2023-02-15T08:10:59;23.38;;;17.08;;
6422;SDS011;3244;42.708;23.288;2023-02-15T08:13:44;22.90;;;15.05;;
6422;SDS011;3244;42.708;23.288;2023-02-15T08:16:21;22.73;;;16.10;;
6422;SDS011;3244;42.708;23.288;2023-02-15T08:18:48;29.15;;;15.63;;
6422;SDS011;3244;42.708;23.288;2023-02-15T08:21:15;20.75;;;14.63;;
6422;SDS011;3244;42.708;23.288;2023-02-15T08:23:42;23.27;;;15.88;;
6422;SDS011;3244;42.708;23.288;2023-02-15T08:26:08;29.75;;;18.90;;
6422;SDS011;3244;42.708;23.288;2023-02-15T08:28:35;20.63;;;16.50;;
6422;SDS011;3244;42.708;23.288;2023-02-15T08:31:05;21.80;;;15.50;;
6422;SDS011;3244;42.708;23.288;2023-02-15T08:33:34;25.05;;;16.90;;
6422;SDS011;3244;42.708;23.288;2023-02-15T08:36:04;25.90;;;15.45;;
6422;SDS011;3244;42.708;23.288;2023-02-15T08:38:32;22.50;;;15.15;;
6422;SDS011;3244;42.708;23.288;2023-02-15T08:41:08;21.38;;;14.85;;
6422;SDS011;3244;42.708;23.288;2023-02-15T08:43:35;18.17;;;13.23;;
6422;SDS011;3244;42.708;23.288;2023-02-15T08:46:02;28.27;;;14.88;;
6422;SDS011;3244;42.708;23.288;2023-02-15T08:48:29;24.77;;;14.32;;
6422;SDS011;3244;42.708;23.288;2023-02-15T08:50:57;19.85;;;13.50;;
6422;SDS011;3244;42.708;23.288;2023-02-15T08:53:24;20.20;;;13.68;;
6422;SDS011;3244;42.708;23.288;2023-02-15T08:55:54;27.52;;;12.80;;
6422;SDS011;3244;42.708;23.288;2023-02-15T08:58:22;24.10;;;13.80;;
6422;SDS011;3244;42.708;23.288;2023-02-15T09:00:48;21.23;;;14.40;;
6422;SDS011;3244;42.708;23.288;2023-02-15T09:03:15;24.77;;;16.23;;
6422;SDS011;3244;42.708;23.288;2023-02-15T09:05:42;19.77;;;15.38;;
6422;SDS011;3244;42.708;23.288;2023-02-15T09:08:10;25.30;;;15.25;;
6422;SDS011;3244;42.708;23.288;2023-02-15T09:10:37;29.80;;;14.82;;
6422;SDS011;3244;42.708;23.288;2023-02-15T09:13:03;21.65;;;14.75;;
6422;SDS011;3244;42.708;23.288;2023-02-15T09:15:30;18.37;;;13.77;;
6422;SDS011;3244;42.708;23.288;2023-02-15T09:17:57;26.00;;;14.95;;
6422;SDS011;3244;42.708;23.288;2023-02-15T09:20:26;23.77;;;15.55;;
6422;SDS011;3244;42.708;23.288;2023-02-15T09:22:53;23.33;;;14.43;;
6422;SDS011;3244;42.708;23.288;2023-02-15T09:25:21;24.95;;;16.05;;
6422;SDS011;3244;42.708;23.288;2023-02-15T09:27:48;21.65;;;15.48;;
6422;SDS011;3244;42.708;23.288;2023-02-15T09:30:15;24.45;;;15.32;;
6422;SDS011;3244;42.708;23.288;2023-02-15T09:32:42;24.38;;;15.10;;
6422;SDS011;3244;42.708;23.288;2023-02-15T09:35:09;24.52;;;15.30;;
6422;SDS011;3244;42.708;23.288;2023-02-15T09:37:36;20.58;;;14.45;;
6422;SDS011;3244;42.708;23.288;2023-02-15T09:40:03;21.48;;;14.45;;
6422;SDS011;3244;42.708;23.288;2023-02-15T09:42:36;20.88;;;15.23;;
6422;SDS011;3244;42.708;23.288;2023-02-15T09:45:26;21.45;;;14.55;;
6422;SDS011;3244;42.708;23.288;2023-02-15T09:51:02;23.63;;;14.52;;
6422;SDS011;3244;42.708;23.288;2023-02-15T09:53:43;22.20;;;15.95;;
6422;SDS011;3244;42.708;23.288;2023-02-15T09:56:31;20.50;;;14.55;;
6422;SDS011;3244;42.708;23.288;2023-02-15T09:59:07;25.95;;;16.33;;
6422;SDS011;3244;42.708;23.288;2023-02-15T10:01:45;22.13;;;14.68;;
6422;SDS011;3244;42.708;23.288;2023-02-15T10:04:21;22.15;;;14.48;;
6422;SDS011;3244;42.708;23.288;2023-02-15T10:07:05;22.42;;;14.70;;
6422;SDS011;3244;42.708;23.288;2023-02-15T10:09:47;22.83;;;15.02;;
6422;SDS011;3244;42.708;23.288;2023-02-15T10:12:31;20.77;;;15.73;;
6422;SDS011;3244;42.708;23.288;2023-02-15T10:15:10;17.63;;;13.80;;
6422;SDS011;3244;42.708;23.288;2023-02-15T10:17:59;22.88;;;14.48;;
6422;SDS011;3244;42.708;23.288;2023-02-15T10:20:34;23.00;;;14.98;;
6422;SDS011;3244;42.708;23.288;2023-02-15T10:23:17;20.00;;;15.20;;
6422;SDS011;3244;42.708;23.288;2023-02-15T10:26:01;25.85;;;15.90;;
6422;SDS011;3244;42.708;23.288;2023-02-15T10:28:41;23.02;;;16.20;;
6422;SDS011;3244;42.708;23.288;2023-02-15T10:31:15;26.20;;;15.45;;
6422;SDS011;3244;42.708;23.288;2023-02-15T10:33:48;23.15;;;16.33;;
6422;SDS011;3244;42.708;23.288;2023-02-15T10:36:26;19.63;;;14.98;;
6422;SDS011;3244;42.708;23.288;2023-02-15T10:39:05;25.63;;;16.95;;
6422;SDS011;3244;42.708;23.288;2023-02-15T10:41:41;24.23;;;16.73;;
6422;SDS011;3244;42.708;23.288;2023-02-15T10:44:22;20.98;;;15.43;;
6422;SDS011;3244;42.708;23.288;2023-02-15T10:47:05;25.27;;;17.05;;
6422;SDS011;3244;42.708;23.288;2023-02-15T10:49:53;24.08;;;16.95;;
6422;SDS011;3244;42.708;23.288;2023-02-15T10:52:39;24.08;;;16.63;;
6422;SDS011;3244;42.708;23.288;2023-02-15T10:55:21;21.77;;;16.08;;
6422;SDS011;3244;42.708;23.288;2023-02-15T10:58:01;21.05;;;17.00;;
6422;SDS011;3244;42.708;23.288;2023-02-15T11:00:36;25.40;;;16.38;;
6422;SDS011;3244;42.708;23.288;2023-02-15T11:03:25;20.92;;;17.00;;
6422;SDS011;3244;42.708;23.288;2023-02-15T11:06:03;20.23;;;15.75;;
6422;SDS011;3244;42.708;23.288;2023-02-15T11:08:32;19.88;;;16.20;;
6422;SDS011;3244;42.708;23.288;2023-02-15T11:11:03;24.70;;;17.45;;
6422;SDS011;3244;42.708;23.288;2023-02-15T11:13:34;22.98;;;16.95;;
6422;SDS011;3244;42.708;23.288;2023-02-15T11:16:05;19.83;;;15.43;;
6422;SDS011;3244;42.708;23.288;2023-02-15T11:18:39;24.30;;;16.48;;
6422;SDS011;3244;42.708;23.288;2023-02-15T11:21:11;25.25;;;16.50;;
6422;SDS011;3244;42.708;23.288;2023-02-15T11:23:44;20.77;;;15.25;;
6422;SDS011;3244;42.708;23.288;2023-02-15T11:26:12;23.10;;;16.33;;
6422;SDS011;3244;42.708;23.288;2023-02-15T11:28:43;25.65;;;16.90;;
6422;SDS011;3244;42.708;23.288;2023-02-15T11:31:15;25.63;;;16.70;;
6422;SDS011;3244;42.708;23.288;2023-02-15T11:33:46;23.17;;;17.25;;
6422;SDS011;3244;42.708;23.288;2023-02-15T11:36:19;25.45;;;16.80;;
6422;SDS011;3244;42.708;23.288;2023-02-15T11:38:50;25.30;;;17.00;;
6422;SDS011;3244;42.708;23.288;2023-02-15T11:41:24;25.65;;;17.67;;
6422;SDS011;3244;42.708;23.288;2023-02-15T11:43:56;22.20;;;15.45;;
6422;SDS011;3244;42.708;23.288;2023-02-15T11:46:27;23.95;;;17.02;;
6422;SDS011;3244;42.708;23.288;2023-02-15T11:48:55;23.58;;;16.75;;
6422;SDS011;3244;42.708;23.288;2023-02-15T11:51:23;27.00;;;16.25;;
6422;SDS011;3244;42.708;23.288;2023-02-15T11:53:52;29.25;;;15.82;;
6422;SDS011;3244;42.708;23.288;2023-02-15T11:56:20;22.73;;;15.95;;
6422;SDS011;3244;42.708;23.288;2023-02-15T11:58:49;27.25;;;16.40;;
6422;SDS011;3244;42.708;23.288;2023-02-15T12:01:22;21.98;;;16.38;;
6422;SDS011;3244;42.708;23.288;2023-02-15T12:03:55;19.83;;;16.42;;
6422;SDS011;3244;42.708;23.288;2023-02-15T12:06:26;25.83;;;16.55;;
6422;SDS011;3244;42.708;23.288;2023-02-15T12:08:57;24.35;;;17.70;;
6422;SDS011;3244;42.708;23.288;2023-02-15T12:11:33;23.00;;;16.52;;
6422;SDS011;3244;42.708;23.288;2023-02-15T12:14:02;22.60;;;16.92;;
6422;SDS011;3244;42.708;23.288;2023-02-15T12:16:32;23.58;;;16.77;;
6422;SDS011;3244;42.708;23.288;2023-02-15T12:19:12;22.95;;;16.02;;
6422;SDS011;3244;42.708;23.288;2023-02-15T12:21:57;26.30;;;16.30;;
6422;SDS011;3244;42.708;23.288;2023-02-15T12:24:26;36.92;;;18.30;;
6422;SDS011;3244;42.708;23.288;2023-02-15T12:26:56;26.73;;;17.35;;
6422;SDS011;3244;42.708;23.288;2023-02-15T12:29:25;25.27;;;16.85;;
6422;SDS011;3244;42.708;23.288;2023-02-15T12:31:55;23.02;;;17.02;;
6422;SDS011;3244;42.708;23.288;2023-02-15T12:34:26;24.30;;;17.80;;
6422;SDS011;3244;42.708;23.288;2023-02-15T12:36:56;26.40;;;16.98;;
6422;SDS011;3244;42.708;23.288;2023-02-15T12:39:27;24.25;;;16.67;;
6422;SDS011;3244;42.708;23.288;2023-02-15T12:42:03;25.92;;;17.50;;
6422;SDS011;3244;42.708;23.288;2023-02-15T12:44:31;25.70;;;18.23;;
6422;SDS011;3244;42.708;23.288;2023-02-15T12:47:00;21.35;;;17.02;;
6422;SDS011;3244;42.708;23.288;2023-02-15T12:49:30;24.92;;;16.80;;
6422;SDS011;3244;42.708;23.288;2023-02-15T12:51:58;22.55;;;16.30;;
6422;SDS011;3244;42.708;23.288;2023-02-15T12:54:29;24.83;;;16.58;;
6422;SDS011;3244;42.708;23.288;2023-02-15T12:57:21;24.52;;;16.40;;
6422;SDS011;3244;42.708;23.288;2023-02-15T12:59:52;26.90;;;16.08;;
6422;SDS011;3244;42.708;23.288;2023-02-15T13:02:21;22.48;;;16.05;;
6422;SDS011;3244;42.708;23.288;2023-02-15T13:04:52;22.80;;;17.00;;
6422;SDS011;3244;42.708;23.288;2023-02-15T13:07:21;24.77;;;16.08;;
6422;SDS011;3244;42.708;23.288;2023-02-15T13:09:48;20.42;;;15.80;;
6422;SDS011;3244;42.708;23.288;2023-02-15T13:12:17;22.48;;;17.08;;
6422;SDS011;3244;42.708;23.288;2023-02-15T13:14:47;25.65;;;18.00;;
6422;SDS011;3244;42.708;23.288;2023-02-15T13:17:17;28.77;;;16.27;;
6422;SDS011;3244;42.708;23.288;2023-02-15T13:19:49;23.13;;;15.63;;
6422;SDS011;3244;42.708;23.288;2023-02-15T13:22:21;20.50;;;15.55;;
6422;SDS011;3244;42.708;23.288;2023-02-15T13:24:51;23.85;;;16.20;;
6422;SDS011;3244;42.708;23.288;2023-02-15T13:27:23;20.88;;;15.00;;
6422;SDS011;3244;42.708;23.288;2023-02-15T13:29:57;19.48;;;15.05;;
6422;SDS011;3244;42.708;23.288;2023-02-15T13:32:28;25.55;;;17.13;;
6422;SDS011;3244;42.708;23.288;2023-02-15T13:34:59;25.98;;;16.98;;
6422;SDS011;3244;42.708;23.288;2023-02-15T13:37:40;25.33;;;17.13;;
6422;SDS011;3244;42.708;23.288;2023-02-15T13:40:15;23.45;;;15.73;;
6422;SDS011;3244;42.708;23.288;2023-02-15T13:42:49;23.52;;;15.43;;
6422;SDS011;3244;42.708;23.288;2023-02-15T13:45:26;23.25;;;17.02;;
6422;SDS011;3244;42.708;23.288;2023-02-15T13:48:10;22.30;;;16.60;;
6422;SDS011;3244;42.708;23.288;2023-02-15T13:50:56;20.17;;;16.00;;
6422;SDS011;3244;42.708;23.288;2023-02-15T13:53:38;23.55;;;17.05;;
6422;SDS011;3244;42.708;23.288;2023-02-15T13:56:15;23.10;;;16.95;;
6422;SDS011;3244;42.708;23.288;2023-02-15T13:59:00;27.38;;;17.98;;
6422;SDS011;3244;42.708;23.288;2023-02-15T14:01:39;21.63;;;16.08;;
6422;SDS011;3244;42.708;23.288;2023-02-15T14:04:22;25.52;;;17.38;;
6422;SDS011;3244;42.708;23.288;2023-02-15T14:07:25;23.95;;;16.33;;
6422;SDS011;3244;42.708;23.288;2023-02-15T14:10:11;28.70;;;18.10;;
6422;SDS011;3244;42.708;23.288;2023-02-15T14:12:55;26.85;;;17.63;;
6422;SDS011;3244;42.708;23.288;2023-02-15T14:15:38;25.55;;;16.95;;
6422;SDS011;3244;42.708;23.288;2023-02-15T14:18:12;26.13;;;18.08;;
6422;SDS011;3244;42.708;23.288;2023-02-15T14:20:50;26.20;;;17.58;;
6422;SDS011;3244;42.708;23.288;2023-02-15T14:23:28;24.25;;;17.48;;
6422;SDS011;3244;42.708;23.288;2023-02-15T14:26:06;28.23;;;17.23;;
6422;SDS011;3244;42.708;23.288;2023-02-15T14:28:43;23.27;;;16.65;;
6422;SDS011;3244;42.708;23.288;2023-02-15T14:31:15;25.83;;;17.20;;
6422;SDS011;3244;42.708;23.288;2023-02-15T14:33:52;29.20;;;19.13;;
6422;SDS011;3244;42.708;23.288;2023-02-15T14:36:21;27.63;;;17.83;;
6422;SDS011;3244;42.708;23.288;2023-02-15T14:38:53;24.85;;;17.38;;
6422;SDS011;3244;42.708;23.288;2023-02-15T14:41:31;24.92;;;17.27;;
6422;SDS011;3244;42.708;23.288;2023-02-15T14:44:05;24.33;;;16.25;;
6422;SDS011;3244;42.708;23.288;2023-02-15T14:46:38;25.30;;;17.85;;
6422;SDS011;3244;42.708;23.288;2023-02-15T14:49:12;30.17;;;19.05;;
6422;SDS011;3244;42.708;23.288;2023-02-15T14:51:58;23.50;;;17.27;;
6422;SDS011;3244;42.708;23.288;2023-02-15T14:57:26;27.25;;;17.85;;
6422;SDS011;3244;42.708;23.288;2023-02-15T14:59:57;23.60;;;16.20;;
6422;SDS011;3244;42.708;23.288;2023-02-15T15:02:26;22.83;;;16.25;;
6422;SDS011;3244;42.708;23.288;2023-02-15T15:05:00;26.45;;;16.60;;
6422;SDS011;3244;42.708;23.288;2023-02-15T15:07:36;22.70;;;16.40;;
6422;SDS011;3244;42.708;23.288;2023-02-15T15:16:31;25.73;;;17.60;;